Leucadia, California
Current Conditions -  °F | °C
As of 3:53 PM on Thursday 18 Dec 2014 (Local Time) from KCRQ Reporting Station
Broken Clouds Broken Clouds  
Wind Chill: 61°   Ceiling: 6500
Heat Index: 61°   Visibility: 10mi
Dew Point: 49°   Wind: 7mph
Humidity: 64%   Direction: 250°WSW
Pressure: 30.14"   Gusts: NA
Location:  33.0541°N, 117.25°W
Report Text: KCRQ 182353Z AUTO 25006KT 10SM BKN065 16/09 A3014 RMK AO2 SLP206 T01610094 10178 20150 55000 TSNO
Loading
Personal Weather Stations






























Interactive Weather Map New forecast layout! Learn more

10-Day Weather Forecast

Advertisements
Track Severe Weather on mobile